Ahmedabad Airport
VAAH : now visible

Airfield :











YOU CAN JOIN US ON...

 
LOGIN :

Register | Disclaimer

   EN    FR    IT 

 









Legend :    VFR   Marginal VFR   IFR   Intensive IFR   Very Intensive IFR
Visi :
Ceiling :
>= 8 km
>= 3000ft
5 to 8 km
1000 to 3000 ft
1500m to 5 km
500 to 1000 ft
800 to 1500m
200 to 500 ft
< 800m
< 200 ft
Symbols :   Thunderstorms  Fog  Heavy snow  Heavy precipitations  Wind > 20 kt






- Airport Elevation : 189 ft
- IATA code : AMD


VAAH - Ahmedabad

CURRENT METAR :
  • 251000Z 33004KT 5000 FU FEW080 27/09 Q1014 NOSIG

EXPIRED METARs :
  • 250930Z 03003KT 4000 FU SCT080 27/09 Q1014 BECMG 5000
  • 250900Z 02003KT 4000 FU SCT080 26/10 Q1015 NOSIG
  • 250830Z 03003KT 4000 FU BKN080 25/10 Q1015 NOSIG
  • 250800Z 13004KT 4000 FU BKN080 25/10 Q1015 NOSIG
  • 250730Z 10002KT 4000 FU BKN080 23/10 Q1017 NOSIG

TAF TAF VAAH
Valid from the 25 at 09:00 until the 25 at 18:00 UTC


250800Z 2509/2518 02004KT 4000 FU SCT080
BECMG 2512/2514 35003KT 4000



MET'MAP, your aeronautical weather chart ! - Copyright ORBIFLY December 2007 - Disclaimer

ORBIFLY MET'MAP TEAM :

Programming & Development : Alexandra Zaïnal
Concept & original design : Baudouin d'Aumeries
Assistance for programming : Marc-Olivier Méhu
Technical & hardware support : Manuel Goepfert

Contact : metmap@orbifly.com




SOURCES & CREDITS :

   NOAA       Earth
Advisory